sensor_id;sensor_type;location;lat;lon;timestamp;P1;durP1;ratioP1;P2;durP2;ratioP2
44516;SDS011;30223;17.182;-96.766;2022-07-06T00:02:18;9.65;;;3.95;;
44516;SDS011;30223;17.182;-96.766;2022-07-06T00:04:44;6.82;;;3.83;;
44516;SDS011;30223;17.182;-96.766;2022-07-06T00:07:11;6.72;;;4.03;;
44516;SDS011;30223;17.182;-96.766;2022-07-06T00:09:40;6.60;;;3.40;;
44516;SDS011;30223;17.182;-96.766;2022-07-06T00:12:07;6.32;;;3.58;;
44516;SDS011;30223;17.182;-96.766;2022-07-06T00:14:34;5.03;;;3.67;;
44516;SDS011;30223;17.182;-96.766;2022-07-06T00:17:01;8.10;;;4.13;;
44516;SDS011;30223;17.182;-96.766;2022-07-06T00:19:28;4.60;;;3.17;;
44516;SDS011;30223;17.182;-96.766;2022-07-06T00:21:55;6.20;;;4.13;;
44516;SDS011;30223;17.182;-96.766;2022-07-06T00:24:21;7.88;;;4.15;;
44516;SDS011;30223;17.182;-96.766;2022-07-06T00:26:48;9.93;;;4.38;;
44516;SDS011;30223;17.182;-96.766;2022-07-06T00:29:14;7.00;;;3.50;;
44516;SDS011;30223;17.182;-96.766;2022-07-06T00:31:41;4.35;;;3.78;;
44516;SDS011;30223;17.182;-96.766;2022-07-06T00:34:08;4.38;;;2.92;;
44516;SDS011;30223;17.182;-96.766;2022-07-06T00:36:34;5.90;;;3.35;;
44516;SDS011;30223;17.182;-96.766;2022-07-06T00:39:01;8.55;;;4.97;;
44516;SDS011;30223;17.182;-96.766;2022-07-06T00:41:28;5.65;;;3.97;;
44516;SDS011;30223;17.182;-96.766;2022-07-06T00:43:55;5.63;;;3.35;;
44516;SDS011;30223;17.182;-96.766;2022-07-06T00:46:30;7.45;;;4.07;;
44516;SDS011;30223;17.182;-96.766;2022-07-06T00:48:58;5.53;;;3.55;;
44516;SDS011;30223;17.182;-96.766;2022-07-06T00:51:25;7.68;;;3.42;;
44516;SDS011;30223;17.182;-96.766;2022-07-06T00:53:55;11.20;;;4.05;;
44516;SDS011;30223;17.182;-96.766;2022-07-06T00:56:26;7.72;;;3.50;;
44516;SDS011;30223;17.182;-96.766;2022-07-06T00:58:54;6.40;;;3.80;;
44516;SDS011;30223;17.182;-96.766;2022-07-06T01:01:20;8.35;;;4.05;;
44516;SDS011;30223;17.182;-96.766;2022-07-06T01:03:47;6.50;;;3.78;;
44516;SDS011;30223;17.182;-96.766;2022-07-06T01:06:14;8.10;;;3.88;;
44516;SDS011;30223;17.182;-96.766;2022-07-06T01:08:41;8.15;;;3.80;;
44516;SDS011;30223;17.182;-96.766;2022-07-06T01:11:07;6.40;;;3.75;;
44516;SDS011;30223;17.182;-96.766;2022-07-06T01:13:34;7.68;;;4.50;;
44516;SDS011;30223;17.182;-96.766;2022-07-06T01:16:01;9.48;;;5.32;;
44516;SDS011;30223;17.182;-96.766;2022-07-06T01:18:27;14.77;;;5.15;;
44516;SDS011;30223;17.182;-96.766;2022-07-06T01:21:10;10.30;;;4.32;;
44516;SDS011;30223;17.182;-96.766;2022-07-06T01:23:39;10.02;;;4.55;;
44516;SDS011;30223;17.182;-96.766;2022-07-06T01:26:08;8.63;;;4.40;;
44516;SDS011;30223;17.182;-96.766;2022-07-06T01:28:38;6.10;;;4.10;;
44516;SDS011;30223;17.182;-96.766;2022-07-06T01:31:10;6.22;;;4.15;;
44516;SDS011;30223;17.182;-96.766;2022-07-06T01:33:50;7.68;;;4.07;;
44516;SDS011;30223;17.182;-96.766;2022-07-06T01:36:18;6.20;;;3.53;;
44516;SDS011;30223;17.182;-96.766;2022-07-06T01:38:46;6.03;;;3.80;;
44516;SDS011;30223;17.182;-96.766;2022-07-06T01:41:14;7.13;;;3.90;;
44516;SDS011;30223;17.182;-96.766;2022-07-06T01:43:41;11.10;;;3.45;;
44516;SDS011;30223;17.182;-96.766;2022-07-06T01:46:08;7.22;;;3.97;;
44516;SDS011;30223;17.182;-96.766;2022-07-06T01:48:35;5.95;;;3.30;;
44516;SDS011;30223;17.182;-96.766;2022-07-06T01:51:02;5.68;;;3.65;;
44516;SDS011;30223;17.182;-96.766;2022-07-06T01:53:29;7.18;;;4.20;;
44516;SDS011;30223;17.182;-96.766;2022-07-06T01:55:56;9.35;;;4.28;;
44516;SDS011;30223;17.182;-96.766;2022-07-06T01:58:23;5.55;;;3.20;;
44516;SDS011;30223;17.182;-96.766;2022-07-06T02:00:49;11.70;;;3.72;;
44516;SDS011;30223;17.182;-96.766;2022-07-06T02:03:16;9.40;;;4.70;;
44516;SDS011;30223;17.182;-96.766;2022-07-06T02:05:43;9.07;;;3.80;;
44516;SDS011;30223;17.182;-96.766;2022-07-06T02:08:09;5.68;;;3.10;;
44516;SDS011;30223;17.182;-96.766;2022-07-06T02:10:36;7.15;;;3.85;;
44516;SDS011;30223;17.182;-96.766;2022-07-06T02:13:03;6.68;;;3.65;;
44516;SDS011;30223;17.182;-96.766;2022-07-06T02:15:29;11.27;;;4.35;;
44516;SDS011;30223;17.182;-96.766;2022-07-06T02:17:58;6.93;;;4.03;;
44516;SDS011;30223;17.182;-96.766;2022-07-06T02:20:24;5.88;;;4.20;;
44516;SDS011;30223;17.182;-96.766;2022-07-06T02:22:51;7.40;;;3.25;;
44516;SDS011;30223;17.182;-96.766;2022-07-06T02:25:17;7.20;;;3.88;;
44516;SDS011;30223;17.182;-96.766;2022-07-06T02:27:44;6.63;;;3.22;;
44516;SDS011;30223;17.182;-96.766;2022-07-06T02:30:11;5.15;;;3.63;;
44516;SDS011;30223;17.182;-96.766;2022-07-06T02:32:37;8.57;;;3.88;;
44516;SDS011;30223;17.182;-96.766;2022-07-06T02:35:04;5.25;;;3.05;;
44516;SDS011;30223;17.182;-96.766;2022-07-06T02:37:31;6.20;;;3.30;;
44516;SDS011;30223;17.182;-96.766;2022-07-06T02:39:57;6.95;;;3.65;;
44516;SDS011;30223;17.182;-96.766;2022-07-06T02:42:24;6.13;;;4.28;;
44516;SDS011;30223;17.182;-96.766;2022-07-06T02:44:53;6.93;;;3.15;;
44516;SDS011;30223;17.182;-96.766;2022-07-06T02:47:20;5.40;;;3.17;;
44516;SDS011;30223;17.182;-96.766;2022-07-06T02:49:47;5.97;;;3.63;;
44516;SDS011;30223;17.182;-96.766;2022-07-06T02:52:14;8.45;;;4.15;;
44516;SDS011;30223;17.182;-96.766;2022-07-06T02:54:40;5.07;;;2.53;;
44516;SDS011;30223;17.182;-96.766;2022-07-06T02:57:07;4.80;;;3.03;;
44516;SDS011;30223;17.182;-96.766;2022-07-06T02:59:33;9.30;;;3.67;;
44516;SDS011;30223;17.182;-96.766;2022-07-06T03:02:01;6.47;;;3.25;;
44516;SDS011;30223;17.182;-96.766;2022-07-06T03:04:29;6.90;;;3.47;;
44516;SDS011;30223;17.182;-96.766;2022-07-06T03:06:56;5.38;;;2.80;;
44516;SDS011;30223;17.182;-96.766;2022-07-06T03:09:22;7.80;;;3.53;;
44516;SDS011;30223;17.182;-96.766;2022-07-06T03:11:49;6.82;;;3.22;;
44516;SDS011;30223;17.182;-96.766;2022-07-06T03:14:16;8.48;;;4.43;;
44516;SDS011;30223;17.182;-96.766;2022-07-06T03:16:42;5.63;;;3.63;;
44516;SDS011;30223;17.182;-96.766;2022-07-06T03:19:09;8.32;;;4.25;;
44516;SDS011;30223;17.182;-96.766;2022-07-06T03:21:36;6.38;;;3.78;;
44516;SDS011;30223;17.182;-96.766;2022-07-06T03:24:03;6.38;;;4.18;;
44516;SDS011;30223;17.182;-96.766;2022-07-06T03:26:30;5.22;;;3.35;;
44516;SDS011;30223;17.182;-96.766;2022-07-06T03:28:56;8.38;;;3.35;;
44516;SDS011;30223;17.182;-96.766;2022-07-06T03:31:23;6.40;;;3.30;;
44516;SDS011;30223;17.182;-96.766;2022-07-06T03:33:49;6.55;;;3.83;;
44516;SDS011;30223;17.182;-96.766;2022-07-06T03:36:17;8.07;;;4.20;;
44516;SDS011;30223;17.182;-96.766;2022-07-06T03:38:44;9.45;;;3.88;;
44516;SDS011;30223;17.182;-96.766;2022-07-06T03:41:10;5.95;;;2.85;;
44516;SDS011;30223;17.182;-96.766;2022-07-06T03:43:37;5.15;;;3.45;;
44516;SDS011;30223;17.182;-96.766;2022-07-06T03:46:04;4.88;;;3.35;;
44516;SDS011;30223;17.182;-96.766;2022-07-06T03:48:30;5.75;;;3.17;;
44516;SDS011;30223;17.182;-96.766;2022-07-06T03:50:57;4.90;;;3.33;;
44516;SDS011;30223;17.182;-96.766;2022-07-06T03:53:24;5.97;;;3.13;;
44516;SDS011;30223;17.182;-96.766;2022-07-06T03:55:50;6.75;;;3.35;;
44516;SDS011;30223;17.182;-96.766;2022-07-06T03:58:35;4.90;;;3.17;;
44516;SDS011;30223;17.182;-96.766;2022-07-06T04:01:01;5.65;;;3.00;;
44516;SDS011;30223;17.182;-96.766;2022-07-06T04:03:28;6.78;;;3.90;;
44516;SDS011;30223;17.182;-96.766;2022-07-06T04:05:55;4.57;;;2.97;;
44516;SDS011;30223;17.182;-96.766;2022-07-06T04:08:21;5.30;;;3.53;;
44516;SDS011;30223;17.182;-96.766;2022-07-06T04:10:48;6.65;;;3.30;;
44516;SDS011;30223;17.182;-96.766;2022-07-06T04:13:14;5.82;;;2.83;;
44516;SDS011;30223;17.182;-96.766;2022-07-06T04:15:41;4.68;;;3.35;;
44516;SDS011;30223;17.182;-96.766;2022-07-06T04:18:07;7.07;;;3.22;;
44516;SDS011;30223;17.182;-96.766;2022-07-06T04:20:34;9.32;;;3.00;;
44516;SDS011;30223;17.182;-96.766;2022-07-06T04:23:01;6.13;;;3.45;;
44516;SDS011;30223;17.182;-96.766;2022-07-06T04:25:27;4.47;;;3.15;;
44516;SDS011;30223;17.182;-96.766;2022-07-06T04:27:54;5.22;;;2.58;;
44516;SDS011;30223;17.182;-96.766;2022-07-06T04:30:21;4.35;;;3.25;;
44516;SDS011;30223;17.182;-96.766;2022-07-06T04:32:47;4.30;;;2.50;;
44516;SDS011;30223;17.182;-96.766;2022-07-06T04:35:14;5.72;;;3.25;;
44516;SDS011;30223;17.182;-96.766;2022-07-06T04:37:40;4.65;;;2.92;;
44516;SDS011;30223;17.182;-96.766;2022-07-06T04:40:07;4.50;;;3.00;;
44516;SDS011;30223;17.182;-96.766;2022-07-06T04:42:34;6.35;;;3.50;;
44516;SDS011;30223;17.182;-96.766;2022-07-06T04:45:02;5.68;;;2.60;;
44516;SDS011;30223;17.182;-96.766;2022-07-06T04:47:29;4.32;;;2.78;;
44516;SDS011;30223;17.182;-96.766;2022-07-06T04:49:56;4.00;;;2.95;;
44516;SDS011;30223;17.182;-96.766;2022-07-06T04:52:22;7.28;;;4.63;;
44516;SDS011;30223;17.182;-96.766;2022-07-06T04:54:49;6.57;;;3.20;;
44516;SDS011;30223;17.182;-96.766;2022-07-06T04:57:15;6.70;;;2.88;;
44516;SDS011;30223;17.182;-96.766;2022-07-06T04:59:42;4.57;;;3.38;;
44516;SDS011;30223;17.182;-96.766;2022-07-06T05:02:09;6.80;;;3.20;;
44516;SDS011;30223;17.182;-96.766;2022-07-06T05:04:35;3.72;;;2.53;;
44516;SDS011;30223;17.182;-96.766;2022-07-06T05:07:02;4.38;;;2.53;;
44516;SDS011;30223;17.182;-96.766;2022-07-06T05:09:29;4.45;;;2.45;;
44516;SDS011;30223;17.182;-96.766;2022-07-06T05:11:55;4.25;;;2.92;;
44516;SDS011;30223;17.182;-96.766;2022-07-06T05:14:22;8.27;;;3.30;;
44516;SDS011;30223;17.182;-96.766;2022-07-06T05:16:48;5.88;;;4.07;;
44516;SDS011;30223;17.182;-96.766;2022-07-06T05:19:15;3.08;;;2.22;;
44516;SDS011;30223;17.182;-96.766;2022-07-06T05:21:41;4.93;;;2.97;;
44516;SDS011;30223;17.182;-96.766;2022-07-06T05:24:08;5.55;;;3.33;;
44516;SDS011;30223;17.182;-96.766;2022-07-06T05:26:35;4.97;;;3.17;;
44516;SDS011;30223;17.182;-96.766;2022-07-06T05:29:01;2.90;;;2.35;;
44516;SDS011;30223;17.182;-96.766;2022-07-06T05:31:28;5.15;;;2.80;;
44516;SDS011;30223;17.182;-96.766;2022-07-06T05:33:54;4.75;;;2.17;;
44516;SDS011;30223;17.182;-96.766;2022-07-06T05:36:21;4.90;;;2.72;;
44516;SDS011;30223;17.182;-96.766;2022-07-06T05:38:48;4.45;;;2.88;;
44516;SDS011;30223;17.182;-96.766;2022-07-06T05:41:14;5.03;;;2.80;;
44516;SDS011;30223;17.182;-96.766;2022-07-06T05:43:41;4.13;;;2.60;;
44516;SDS011;30223;17.182;-96.766;2022-07-06T05:46:08;5.22;;;3.17;;
44516;SDS011;30223;17.182;-96.766;2022-07-06T05:48:34;5.65;;;4.18;;
44516;SDS011;30223;17.182;-96.766;2022-07-06T05:51:19;5.50;;;2.90;;
44516;SDS011;30223;17.182;-96.766;2022-07-06T05:53:45;4.22;;;2.97;;
44516;SDS011;30223;17.182;-96.766;2022-07-06T05:56:13;4.55;;;3.33;;
44516;SDS011;30223;17.182;-96.766;2022-07-06T05:58:39;5.40;;;2.92;;
44516;SDS011;30223;17.182;-96.766;2022-07-06T06:01:06;6.30;;;3.03;;
44516;SDS011;30223;17.182;-96.766;2022-07-06T06:03:34;4.18;;;2.95;;
44516;SDS011;30223;17.182;-96.766;2022-07-06T06:06:00;3.67;;;2.35;;
44516;SDS011;30223;17.182;-96.766;2022-07-06T06:08:27;4.25;;;2.85;;
44516;SDS011;30223;17.182;-96.766;2022-07-06T06:10:54;4.72;;;2.67;;
44516;SDS011;30223;17.182;-96.766;2022-07-06T06:13:20;6.25;;;3.40;;
44516;SDS011;30223;17.182;-96.766;2022-07-06T06:15:47;4.10;;;2.35;;
44516;SDS011;30223;17.182;-96.766;2022-07-06T06:18:13;5.30;;;2.60;;
44516;SDS011;30223;17.182;-96.766;2022-07-06T06:20:42;5.00;;;2.58;;
44516;SDS011;30223;17.182;-96.766;2022-07-06T06:23:09;4.07;;;2.67;;
44516;SDS011;30223;17.182;-96.766;2022-07-06T06:25:36;4.25;;;3.00;;
44516;SDS011;30223;17.182;-96.766;2022-07-06T06:28:05;6.72;;;2.58;;
44516;SDS011;30223;17.182;-96.766;2022-07-06T06:30:33;3.33;;;2.55;;
44516;SDS011;30223;17.182;-96.766;2022-07-06T06:33:11;6.40;;;2.78;;
44516;SDS011;30223;17.182;-96.766;2022-07-06T06:35:44;4.07;;;3.17;;
44516;SDS011;30223;17.182;-96.766;2022-07-06T06:38:15;3.47;;;2.10;;
44516;SDS011;30223;17.182;-96.766;2022-07-06T06:40:42;4.28;;;2.55;;
44516;SDS011;30223;17.182;-96.766;2022-07-06T06:43:09;5.22;;;3.10;;
44516;SDS011;30223;17.182;-96.766;2022-07-06T06:45:36;6.35;;;2.83;;
44516;SDS011;30223;17.182;-96.766;2022-07-06T06:48:03;3.60;;;2.40;;
44516;SDS011;30223;17.182;-96.766;2022-07-06T06:50:29;3.83;;;2.70;;
44516;SDS011;30223;17.182;-96.766;2022-07-06T06:52:56;5.75;;;2.75;;
44516;SDS011;30223;17.182;-96.766;2022-07-06T06:55:23;5.55;;;3.05;;
44516;SDS011;30223;17.182;-96.766;2022-07-06T06:57:49;3.00;;;2.35;;
44516;SDS011;30223;17.182;-96.766;2022-07-06T07:00:16;2.67;;;2.33;;
44516;SDS011;30223;17.182;-96.766;2022-07-06T07:02:44;7.32;;;4.38;;
44516;SDS011;30223;17.182;-96.766;2022-07-06T07:05:12;4.90;;;2.70;;
44516;SDS011;30223;17.182;-96.766;2022-07-06T07:07:38;4.43;;;3.00;;
44516;SDS011;30223;17.182;-96.766;2022-07-06T07:10:06;3.63;;;2.17;;
44516;SDS011;30223;17.182;-96.766;2022-07-06T07:12:33;4.57;;;2.65;;
44516;SDS011;30223;17.182;-96.766;2022-07-06T07:15:00;4.88;;;2.75;;
44516;SDS011;30223;17.182;-96.766;2022-07-06T07:17:27;3.28;;;2.65;;
44516;SDS011;30223;17.182;-96.766;2022-07-06T07:19:53;3.63;;;2.47;;
44516;SDS011;30223;17.182;-96.766;2022-07-06T07:22:22;4.20;;;2.40;;
44516;SDS011;30223;17.182;-96.766;2022-07-06T07:24:49;3.80;;;2.85;;
44516;SDS011;30223;17.182;-96.766;2022-07-06T07:27:16;6.57;;;3.60;;
44516;SDS011;30223;17.182;-96.766;2022-07-06T07:29:42;5.15;;;2.65;;
44516;SDS011;30223;17.182;-96.766;2022-07-06T07:32:09;3.58;;;2.63;;
44516;SDS011;30223;17.182;-96.766;2022-07-06T07:34:36;5.55;;;2.67;;
44516;SDS011;30223;17.182;-96.766;2022-07-06T07:37:02;5.28;;;2.67;;
44516;SDS011;30223;17.182;-96.766;2022-07-06T07:39:29;4.57;;;3.25;;
44516;SDS011;30223;17.182;-96.766;2022-07-06T07:41:55;6.45;;;3.05;;
44516;SDS011;30223;17.182;-96.766;2022-07-06T07:44:22;3.58;;;2.35;;
44516;SDS011;30223;17.182;-96.766;2022-07-06T07:46:50;3.92;;;2.63;;
44516;SDS011;30223;17.182;-96.766;2022-07-06T07:49:18;4.03;;;2.20;;
44516;SDS011;30223;17.182;-96.766;2022-07-06T07:51:46;5.85;;;3.60;;
44516;SDS011;30223;17.182;-96.766;2022-07-06T07:54:14;3.75;;;2.75;;
44516;SDS011;30223;17.182;-96.766;2022-07-06T07:56:40;5.55;;;2.45;;
44516;SDS011;30223;17.182;-96.766;2022-07-06T07:59:07;6.15;;;2.92;;
44516;SDS011;30223;17.182;-96.766;2022-07-06T08:01:34;4.90;;;2.10;;
44516;SDS011;30223;17.182;-96.766;2022-07-06T08:04:01;4.45;;;2.92;;
44516;SDS011;30223;17.182;-96.766;2022-07-06T08:06:28;3.40;;;2.40;;
44516;SDS011;30223;17.182;-96.766;2022-07-06T08:08:55;3.33;;;2.90;;
44516;SDS011;30223;17.182;-96.766;2022-07-06T08:11:21;3.30;;;2.38;;
44516;SDS011;30223;17.182;-96.766;2022-07-06T08:13:48;4.13;;;2.47;;
44516;SDS011;30223;17.182;-96.766;2022-07-06T08:16:15;3.53;;;2.63;;
44516;SDS011;30223;17.182;-96.766;2022-07-06T08:18:41;7.07;;;3.00;;
44516;SDS011;30223;17.182;-96.766;2022-07-06T08:21:08;6.60;;;2.72;;
44516;SDS011;30223;17.182;-96.766;2022-07-06T08:23:34;3.65;;;2.50;;
44516;SDS011;30223;17.182;-96.766;2022-07-06T08:26:02;3.85;;;2.40;;
44516;SDS011;30223;17.182;-96.766;2022-07-06T08:28:29;3.80;;;2.97;;
44516;SDS011;30223;17.182;-96.766;2022-07-06T08:30:56;2.78;;;2.28;;
44516;SDS011;30223;17.182;-96.766;2022-07-06T08:33:23;4.38;;;2.83;;
44516;SDS011;30223;17.182;-96.766;2022-07-06T08:35:49;4.15;;;2.67;;
44516;SDS011;30223;17.182;-96.766;2022-07-06T08:38:16;4.05;;;2.10;;
44516;SDS011;30223;17.182;-96.766;2022-07-06T08:40:43;4.55;;;2.72;;
44516;SDS011;30223;17.182;-96.766;2022-07-06T08:43:13;3.72;;;2.85;;
44516;SDS011;30223;17.182;-96.766;2022-07-06T08:45:40;6.22;;;2.83;;
44516;SDS011;30223;17.182;-96.766;2022-07-06T08:48:11;5.22;;;2.65;;
44516;SDS011;30223;17.182;-96.766;2022-07-06T08:50:38;4.78;;;2.58;;
44516;SDS011;30223;17.182;-96.766;2022-07-06T08:53:05;5.03;;;3.03;;
44516;SDS011;30223;17.182;-96.766;2022-07-06T08:55:31;3.92;;;3.15;;
44516;SDS011;30223;17.182;-96.766;2022-07-06T08:57:59;4.28;;;2.78;;
44516;SDS011;30223;17.182;-96.766;2022-07-06T09:00:25;5.35;;;2.80;;
44516;SDS011;30223;17.182;-96.766;2022-07-06T09:02:52;4.78;;;2.75;;
44516;SDS011;30223;17.182;-96.766;2022-07-06T09:05:22;3.30;;;2.45;;
44516;SDS011;30223;17.182;-96.766;2022-07-06T09:07:50;4.63;;;2.10;;
44516;SDS011;30223;17.182;-96.766;2022-07-06T09:10:18;3.45;;;2.95;;
44516;SDS011;30223;17.182;-96.766;2022-07-06T09:15:13;9.48;;;3.40;;
44516;SDS011;30223;17.182;-96.766;2022-07-06T09:17:41;4.68;;;3.72;;
44516;SDS011;30223;17.182;-96.766;2022-07-06T09:20:09;3.35;;;2.50;;
44516;SDS011;30223;17.182;-96.766;2022-07-06T09:22:37;6.40;;;3.33;;
44516;SDS011;30223;17.182;-96.766;2022-07-06T09:25:08;3.22;;;2.55;;
44516;SDS011;30223;17.182;-96.766;2022-07-06T09:27:37;4.50;;;2.38;;
44516;SDS011;30223;17.182;-96.766;2022-07-06T09:30:06;5.03;;;2.83;;
44516;SDS011;30223;17.182;-96.766;2022-07-06T09:32:40;3.40;;;2.88;;
44516;SDS011;30223;17.182;-96.766;2022-07-06T09:35:22;5.90;;;3.67;;
44516;SDS011;30223;17.182;-96.766;2022-07-06T09:38:14;3.65;;;2.40;;
44516;SDS011;30223;17.182;-96.766;2022-07-06T09:40:42;3.72;;;2.30;;
44516;SDS011;30223;17.182;-96.766;2022-07-06T09:43:11;3.25;;;2.28;;
44516;SDS011;30223;17.182;-96.766;2022-07-06T09:45:43;3.83;;;2.10;;
44516;SDS011;30223;17.182;-96.766;2022-07-06T09:48:12;4.13;;;2.90;;
44516;SDS011;30223;17.182;-96.766;2022-07-06T09:50:41;4.15;;;2.10;;
44516;SDS011;30223;17.182;-96.766;2022-07-06T09:53:12;3.88;;;2.63;;
44516;SDS011;30223;17.182;-96.766;2022-07-06T09:55:43;7.32;;;2.90;;
44516;SDS011;30223;17.182;-96.766;2022-07-06T09:58:11;5.32;;;2.13;;
44516;SDS011;30223;17.182;-96.766;2022-07-06T10:00:38;5.55;;;2.92;;
44516;SDS011;30223;17.182;-96.766;2022-07-06T10:03:05;4.13;;;2.60;;
44516;SDS011;30223;17.182;-96.766;2022-07-06T10:05:33;4.87;;;2.63;;
44516;SDS011;30223;17.182;-96.766;2022-07-06T10:08:05;7.07;;;2.22;;
44516;SDS011;30223;17.182;-96.766;2022-07-06T10:10:35;2.80;;;2.28;;
44516;SDS011;30223;17.182;-96.766;2022-07-06T10:13:03;6.07;;;2.65;;
44516;SDS011;30223;17.182;-96.766;2022-07-06T10:15:33;4.65;;;2.67;;
44516;SDS011;30223;17.182;-96.766;2022-07-06T10:18:03;5.28;;;2.47;;
44516;SDS011;30223;17.182;-96.766;2022-07-06T10:20:32;3.42;;;2.22;;
44516;SDS011;30223;17.182;-96.766;2022-07-06T10:23:02;5.80;;;3.13;;
44516;SDS011;30223;17.182;-96.766;2022-07-06T10:25:30;6.97;;;3.40;;
44516;SDS011;30223;17.182;-96.766;2022-07-06T10:27:59;3.70;;;2.53;;
44516;SDS011;30223;17.182;-96.766;2022-07-06T10:30:26;6.20;;;3.33;;
44516;SDS011;30223;17.182;-96.766;2022-07-06T10:32:55;5.55;;;2.75;;
44516;SDS011;30223;17.182;-96.766;2022-07-06T10:35:24;5.22;;;2.35;;
44516;SDS011;30223;17.182;-96.766;2022-07-06T10:38:04;5.28;;;2.85;;
44516;SDS011;30223;17.182;-96.766;2022-07-06T10:40:32;3.95;;;2.78;;
44516;SDS011;30223;17.182;-96.766;2022-07-06T10:43:18;3.72;;;2.40;;
44516;SDS011;30223;17.182;-96.766;2022-07-06T10:50:38;4.95;;;3.33;;
44516;SDS011;30223;17.182;-96.766;2022-07-06T10:53:15;5.68;;;2.63;;
44516;SDS011;30223;17.182;-96.766;2022-07-06T10:55:44;4.05;;;2.38;;
44516;SDS011;30223;17.182;-96.766;2022-07-06T10:58:34;4.25;;;3.28;;
44516;SDS011;30223;17.182;-96.766;2022-07-06T11:01:08;4.72;;;3.95;;
44516;SDS011;30223;17.182;-96.766;2022-07-06T11:03:43;4.18;;;2.72;;
44516;SDS011;30223;17.182;-96.766;2022-07-06T11:11:27;3.75;;;2.15;;
44516;SDS011;30223;17.182;-96.766;2022-07-06T11:14:11;4.20;;;3.35;;
44516;SDS011;30223;17.182;-96.766;2022-07-06T11:19:15;3.72;;;2.50;;
44516;SDS011;30223;17.182;-96.766;2022-07-06T11:21:48;6.45;;;3.10;;
44516;SDS011;30223;17.182;-96.766;2022-07-06T11:24:20;3.58;;;2.72;;
44516;SDS011;30223;17.182;-96.766;2022-07-06T11:26:49;3.60;;;2.25;;
44516;SDS011;30223;17.182;-96.766;2022-07-06T11:29:19;8.30;;;3.28;;
44516;SDS011;30223;17.182;-96.766;2022-07-06T11:31:47;4.65;;;2.60;;
44516;SDS011;30223;17.182;-96.766;2022-07-06T11:34:19;4.95;;;2.40;;
44516;SDS011;30223;17.182;-96.766;2022-07-06T11:36:57;2.95;;;1.98;;
44516;SDS011;30223;17.182;-96.766;2022-07-06T11:39:33;4.90;;;2.80;;
44516;SDS011;30223;17.182;-96.766;2022-07-06T11:42:11;6.30;;;3.00;;
44516;SDS011;30223;17.182;-96.766;2022-07-06T11:44:39;6.43;;;3.10;;
44516;SDS011;30223;17.182;-96.766;2022-07-06T11:47:07;4.30;;;2.70;;
44516;SDS011;30223;17.182;-96.766;2022-07-06T11:49:35;5.25;;;2.17;;
44516;SDS011;30223;17.182;-96.766;2022-07-06T11:54:35;5.88;;;3.97;;
44516;SDS011;30223;17.182;-96.766;2022-07-06T11:57:02;5.55;;;3.00;;
44516;SDS011;30223;17.182;-96.766;2022-07-06T11:59:32;5.22;;;2.42;;
44516;SDS011;30223;17.182;-96.766;2022-07-06T12:02:05;6.03;;;3.25;;
44516;SDS011;30223;17.182;-96.766;2022-07-06T12:04:40;3.88;;;2.55;;
44516;SDS011;30223;17.182;-96.766;2022-07-06T12:07:11;4.35;;;2.83;;
44516;SDS011;30223;17.182;-96.766;2022-07-06T12:09:39;2.95;;;2.60;;
44516;SDS011;30223;17.182;-96.766;2022-07-06T12:12:07;4.07;;;2.65;;
44516;SDS011;30223;17.182;-96.766;2022-07-06T12:14:37;4.50;;;2.40;;
44516;SDS011;30223;17.182;-96.766;2022-07-06T12:17:06;4.32;;;2.90;;
44516;SDS011;30223;17.182;-96.766;2022-07-06T12:19:34;4.50;;;2.10;;
44516;SDS011;30223;17.182;-96.766;2022-07-06T12:22:01;3.33;;;2.30;;
44516;SDS011;30223;17.182;-96.766;2022-07-06T12:24:30;4.30;;;2.53;;
44516;SDS011;30223;17.182;-96.766;2022-07-06T12:26:58;4.00;;;2.78;;
44516;SDS011;30223;17.182;-96.766;2022-07-06T12:29:35;4.53;;;2.88;;
44516;SDS011;30223;17.182;-96.766;2022-07-06T12:32:02;3.25;;;2.03;;
44516;SDS011;30223;17.182;-96.766;2022-07-06T12:34:31;3.25;;;2.83;;
44516;SDS011;30223;17.182;-96.766;2022-07-06T12:37:05;9.13;;;2.75;;
44516;SDS011;30223;17.182;-96.766;2022-07-06T12:39:40;4.05;;;2.17;;
44516;SDS011;30223;17.182;-96.766;2022-07-06T12:42:15;4.15;;;2.63;;
44516;SDS011;30223;17.182;-96.766;2022-07-06T12:44:44;3.22;;;2.30;;
44516;SDS011;30223;17.182;-96.766;2022-07-06T12:47:18;3.28;;;2.33;;
44516;SDS011;30223;17.182;-96.766;2022-07-06T12:49:49;4.55;;;2.17;;
44516;SDS011;30223;17.182;-96.766;2022-07-06T12:52:35;4.63;;;2.47;;
44516;SDS011;30223;17.182;-96.766;2022-07-06T12:55:03;3.13;;;2.15;;
44516;SDS011;30223;17.182;-96.766;2022-07-06T12:57:47;2.75;;;1.92;;
44516;SDS011;30223;17.182;-96.766;2022-07-06T13:00:17;3.33;;;1.73;;
44516;SDS011;30223;17.182;-96.766;2022-07-06T13:02:45;2.28;;;1.83;;
44516;SDS011;30223;17.182;-96.766;2022-07-06T13:05:14;3.85;;;2.15;;
44516;SDS011;30223;17.182;-96.766;2022-07-06T13:07:48;2.70;;;2.08;;
44516;SDS011;30223;17.182;-96.766;2022-07-06T13:10:15;3.88;;;2.13;;
44516;SDS011;30223;17.182;-96.766;2022-07-06T13:12:42;3.45;;;2.10;;
44516;SDS011;30223;17.182;-96.766;2022-07-06T13:15:09;2.80;;;1.95;;
44516;SDS011;30223;17.182;-96.766;2022-07-06T13:17:36;5.45;;;2.25;;
44516;SDS011;30223;17.182;-96.766;2022-07-06T13:20:06;6.40;;;2.97;;
44516;SDS011;30223;17.182;-96.766;2022-07-06T13:22:34;4.50;;;2.17;;
44516;SDS011;30223;17.182;-96.766;2022-07-06T13:25:01;3.28;;;1.83;;
44516;SDS011;30223;17.182;-96.766;2022-07-06T13:27:28;8.75;;;3.08;;
44516;SDS011;30223;17.182;-96.766;2022-07-06T13:29:55;6.10;;;2.50;;
44516;SDS011;30223;17.182;-96.766;2022-07-06T13:32:22;3.90;;;2.05;;
44516;SDS011;30223;17.182;-96.766;2022-07-06T13:34:49;4.45;;;1.95;;
44516;SDS011;30223;17.182;-96.766;2022-07-06T13:37:15;3.55;;;2.10;;
44516;SDS011;30223;17.182;-96.766;2022-07-06T13:39:42;2.47;;;1.92;;
44516;SDS011;30223;17.182;-96.766;2022-07-06T13:42:09;4.47;;;2.92;;
44516;SDS011;30223;17.182;-96.766;2022-07-06T13:44:36;4.03;;;1.98;;
44516;SDS011;30223;17.182;-96.766;2022-07-06T13:47:02;2.50;;;1.65;;
44516;SDS011;30223;17.182;-96.766;2022-07-06T13:49:29;3.33;;;2.13;;
44516;SDS011;30223;17.182;-96.766;2022-07-06T13:51:56;4.93;;;2.42;;
44516;SDS011;30223;17.182;-96.766;2022-07-06T13:54:29;3.97;;;1.92;;
44516;SDS011;30223;17.182;-96.766;2022-07-06T13:56:56;3.80;;;2.05;;
44516;SDS011;30223;17.182;-96.766;2022-07-06T13:59:22;3.78;;;2.08;;
44516;SDS011;30223;17.182;-96.766;2022-07-06T14:01:49;2.72;;;2.30;;
44516;SDS011;30223;17.182;-96.766;2022-07-06T14:04:16;3.70;;;2.20;;
44516;SDS011;30223;17.182;-96.766;2022-07-06T14:06:42;2.67;;;2.20;;
44516;SDS011;30223;17.182;-96.766;2022-07-06T14:09:09;3.47;;;2.50;;
44516;SDS011;30223;17.182;-96.766;2022-07-06T14:11:35;3.10;;;2.22;;
44516;SDS011;30223;17.182;-96.766;2022-07-06T14:14:02;2.53;;;1.95;;
44516;SDS011;30223;17.182;-96.766;2022-07-06T14:16:32;5.00;;;2.15;;
44516;SDS011;30223;17.182;-96.766;2022-07-06T14:19:00;3.50;;;1.90;;
44516;SDS011;30223;17.182;-96.766;2022-07-06T14:21:27;3.65;;;2.60;;
44516;SDS011;30223;17.182;-96.766;2022-07-06T14:23:54;3.45;;;2.10;;
44516;SDS011;30223;17.182;-96.766;2022-07-06T14:26:20;5.55;;;2.55;;
44516;SDS011;30223;17.182;-96.766;2022-07-06T14:28:47;3.60;;;1.70;;
44516;SDS011;30223;17.182;-96.766;2022-07-06T14:31:13;2.72;;;2.15;;
44516;SDS011;30223;17.182;-96.766;2022-07-06T14:33:40;3.63;;;2.65;;
44516;SDS011;30223;17.182;-96.766;2022-07-06T14:36:07;3.35;;;2.22;;
44516;SDS011;30223;17.182;-96.766;2022-07-06T14:38:33;4.43;;;2.63;;
44516;SDS011;30223;17.182;-96.766;2022-07-06T14:41:00;2.67;;;2.13;;
44516;SDS011;30223;17.182;-96.766;2022-07-06T14:43:26;3.92;;;2.33;;
44516;SDS011;30223;17.182;-96.766;2022-07-06T14:45:53;3.70;;;1.98;;